sensor_id;sensor_type;location;lat;lon;timestamp;temperature;humidity
24226;DHT22;51462;51.422;5.514;2023-11-21T00:00:09;7.20;99.90
24226;DHT22;51462;51.422;5.514;2023-11-21T00:02:38;7.30;99.90
24226;DHT22;51462;51.422;5.514;2023-11-21T00:05:06;7.10;99.90
24226;DHT22;51462;51.422;5.514;2023-11-21T00:07:33;7.20;99.90
24226;DHT22;51462;51.422;5.514;2023-11-21T00:09:59;7.20;99.90
24226;DHT22;51462;51.422;5.514;2023-11-21T00:12:24;7.30;99.90
24226;DHT22;51462;51.422;5.514;2023-11-21T00:14:50;7.30;99.90
24226;DHT22;51462;51.422;5.514;2023-11-21T00:17:15;7.30;99.90
24226;DHT22;51462;51.422;5.514;2023-11-21T00:19:41;7.40;99.90
24226;DHT22;51462;51.422;5.514;2023-11-21T00:22:08;7.40;99.90
24226;DHT22;51462;51.422;5.514;2023-11-21T00:24:34;7.30;99.90
24226;DHT22;51462;51.422;5.514;2023-11-21T00:27:00;7.30;99.90
24226;DHT22;51462;51.422;5.514;2023-11-21T00:29:25;7.30;99.90
24226;DHT22;51462;51.422;5.514;2023-11-21T00:31:51;7.30;99.90
24226;DHT22;51462;51.422;5.514;2023-11-21T00:34:17;7.30;99.90
24226;DHT22;51462;51.422;5.514;2023-11-21T00:36:42;7.30;99.90
24226;DHT22;51462;51.422;5.514;2023-11-21T00:39:08;7.30;99.90
24226;DHT22;51462;51.422;5.514;2023-11-21T00:41:34;7.30;99.90
24226;DHT22;51462;51.422;5.514;2023-11-21T00:44:01;7.30;99.90
24226;DHT22;51462;51.422;5.514;2023-11-21T00:46:27;7.30;99.90
24226;DHT22;51462;51.422;5.514;2023-11-21T00:48:54;7.30;99.90
24226;DHT22;51462;51.422;5.514;2023-11-21T00:51:20;7.30;99.90
24226;DHT22;51462;51.422;5.514;2023-11-21T00:53:47;7.30;99.90
24226;DHT22;51462;51.422;5.514;2023-11-21T00:56:13;7.30;99.90
24226;DHT22;51462;51.422;5.514;2023-11-21T00:58:39;7.30;99.90
24226;DHT22;51462;51.422;5.514;2023-11-21T01:01:04;7.20;99.90
24226;DHT22;51462;51.422;5.514;2023-11-21T01:03:30;7.20;99.90
24226;DHT22;51462;51.422;5.514;2023-11-21T01:05:56;7.30;99.90
24226;DHT22;51462;51.422;5.514;2023-11-21T01:08:21;7.30;99.90
24226;DHT22;51462;51.422;5.514;2023-11-21T01:10:47;7.30;99.90
24226;DHT22;51462;51.422;5.514;2023-11-21T01:13:13;7.30;99.90
24226;DHT22;51462;51.422;5.514;2023-11-21T01:15:40;7.20;99.90
24226;DHT22;51462;51.422;5.514;2023-11-21T01:18:07;7.20;99.90
24226;DHT22;51462;51.422;5.514;2023-11-21T01:20:34;7.10;99.90
24226;DHT22;51462;51.422;5.514;2023-11-21T01:22:59;7.00;99.90
24226;DHT22;51462;51.422;5.514;2023-11-21T01:25:25;7.00;99.90
24226;DHT22;51462;51.422;5.514;2023-11-21T01:27:51;7.00;99.90
24226;DHT22;51462;51.422;5.514;2023-11-21T01:30:17;7.00;99.90
24226;DHT22;51462;51.422;5.514;2023-11-21T01:32:43;7.00;99.90
24226;DHT22;51462;51.422;5.514;2023-11-21T01:35:09;6.80;99.90
24226;DHT22;51462;51.422;5.514;2023-11-21T01:37:36;6.80;99.90
24226;DHT22;51462;51.422;5.514;2023-11-21T01:40:02;6.80;99.90
24226;DHT22;51462;51.422;5.514;2023-11-21T01:42:27;6.80;99.90
24226;DHT22;51462;51.422;5.514;2023-11-21T01:44:54;6.70;99.90
24226;DHT22;51462;51.422;5.514;2023-11-21T01:47:20;6.70;99.90
24226;DHT22;51462;51.422;5.514;2023-11-21T01:49:47;6.70;99.90
24226;DHT22;51462;51.422;5.514;2023-11-21T01:52:13;6.60;99.90
24226;DHT22;51462;51.422;5.514;2023-11-21T01:54:40;6.60;99.90
24226;DHT22;51462;51.422;5.514;2023-11-21T01:57:06;6.60;99.90
24226;DHT22;51462;51.422;5.514;2023-11-21T01:59:36;6.60;99.90
24226;DHT22;51462;51.422;5.514;2023-11-21T02:02:06;6.60;99.90
24226;DHT22;51462;51.422;5.514;2023-11-21T02:04:32;6.70;99.90
24226;DHT22;51462;51.422;5.514;2023-11-21T02:06:58;6.70;99.90
24226;DHT22;51462;51.422;5.514;2023-11-21T02:09:25;6.70;99.90
24226;DHT22;51462;51.422;5.514;2023-11-21T02:11:52;6.80;99.90
24226;DHT22;51462;51.422;5.514;2023-11-21T02:14:20;6.70;99.90
24226;DHT22;51462;51.422;5.514;2023-11-21T02:16:50;6.70;99.90
24226;DHT22;51462;51.422;5.514;2023-11-21T02:19:20;6.70;99.90
24226;DHT22;51462;51.422;5.514;2023-11-21T02:21:53;6.80;99.90
24226;DHT22;51462;51.422;5.514;2023-11-21T02:24:21;6.70;99.90
24226;DHT22;51462;51.422;5.514;2023-11-21T02:26:48;6.90;99.90
24226;DHT22;51462;51.422;5.514;2023-11-21T02:29:13;6.90;99.90
24226;DHT22;51462;51.422;5.514;2023-11-21T02:31:42;6.90;99.90
24226;DHT22;51462;51.422;5.514;2023-11-21T02:34:16;6.80;99.90
24226;DHT22;51462;51.422;5.514;2023-11-21T02:36:43;6.80;99.90
24226;DHT22;51462;51.422;5.514;2023-11-21T02:39:10;6.80;99.90
24226;DHT22;51462;51.422;5.514;2023-11-21T02:41:37;6.80;99.90
24226;DHT22;51462;51.422;5.514;2023-11-21T02:44:04;6.80;99.90
24226;DHT22;51462;51.422;5.514;2023-11-21T02:46:31;6.90;99.90
24226;DHT22;51462;51.422;5.514;2023-11-21T02:48:57;7.00;99.90
24226;DHT22;51462;51.422;5.514;2023-11-21T02:51:23;7.00;99.90
24226;DHT22;51462;51.422;5.514;2023-11-21T02:53:49;6.90;99.90
24226;DHT22;51462;51.422;5.514;2023-11-21T02:56:16;6.80;99.90
24226;DHT22;51462;51.422;5.514;2023-11-21T02:58:42;6.80;99.90
24226;DHT22;51462;51.422;5.514;2023-11-21T03:01:09;6.90;99.90
24226;DHT22;51462;51.422;5.514;2023-11-21T03:03:37;6.80;99.90
24226;DHT22;51462;51.422;5.514;2023-11-21T03:06:05;6.80;99.90
24226;DHT22;51462;51.422;5.514;2023-11-21T03:08:31;6.90;99.90
24226;DHT22;51462;51.422;5.514;2023-11-21T03:10:57;6.90;99.90
24226;DHT22;51462;51.422;5.514;2023-11-21T03:13:23;7.00;99.90
24226;DHT22;51462;51.422;5.514;2023-11-21T03:15:48;6.90;99.90
24226;DHT22;51462;51.422;5.514;2023-11-21T03:18:14;6.90;99.90
24226;DHT22;51462;51.422;5.514;2023-11-21T03:20:39;6.90;99.90
24226;DHT22;51462;51.422;5.514;2023-11-21T03:23:05;6.80;99.90
24226;DHT22;51462;51.422;5.514;2023-11-21T03:25:31;6.80;99.90
24226;DHT22;51462;51.422;5.514;2023-11-21T03:27:56;6.80;99.90
24226;DHT22;51462;51.422;5.514;2023-11-21T03:30:22;6.90;99.90
24226;DHT22;51462;51.422;5.514;2023-11-21T03:32:47;6.90;99.90
24226;DHT22;51462;51.422;5.514;2023-11-21T03:35:13;6.90;99.90
24226;DHT22;51462;51.422;5.514;2023-11-21T03:37:39;6.90;99.90
24226;DHT22;51462;51.422;5.514;2023-11-21T03:40:07;6.80;99.90
24226;DHT22;51462;51.422;5.514;2023-11-21T03:42:34;6.80;99.90
24226;DHT22;51462;51.422;5.514;2023-11-21T03:45:00;6.80;99.90
24226;DHT22;51462;51.422;5.514;2023-11-21T03:47:27;6.90;99.90
24226;DHT22;51462;51.422;5.514;2023-11-21T03:49:53;6.80;99.90
24226;DHT22;51462;51.422;5.514;2023-11-21T03:52:18;6.80;99.90
24226;DHT22;51462;51.422;5.514;2023-11-21T03:54:44;6.80;99.90
24226;DHT22;51462;51.422;5.514;2023-11-21T03:57:11;7.00;99.90
24226;DHT22;51462;51.422;5.514;2023-11-21T03:59:40;6.90;99.90
24226;DHT22;51462;51.422;5.514;2023-11-21T04:02:06;6.80;99.90
24226;DHT22;51462;51.422;5.514;2023-11-21T04:04:33;6.80;99.90
24226;DHT22;51462;51.422;5.514;2023-11-21T04:06:59;6.60;99.90
24226;DHT22;51462;51.422;5.514;2023-11-21T04:09:24;6.60;99.90
24226;DHT22;51462;51.422;5.514;2023-11-21T04:11:51;7.00;99.90
24226;DHT22;51462;51.422;5.514;2023-11-21T04:14:17;6.90;99.90
24226;DHT22;51462;51.422;5.514;2023-11-21T04:16:42;6.90;99.90
24226;DHT22;51462;51.422;5.514;2023-11-21T04:19:08;6.80;99.90
24226;DHT22;51462;51.422;5.514;2023-11-21T04:21:38;6.80;99.90
24226;DHT22;51462;51.422;5.514;2023-11-21T04:24:04;6.60;99.90
24226;DHT22;51462;51.422;5.514;2023-11-21T04:26:30;6.60;99.90
24226;DHT22;51462;51.422;5.514;2023-11-21T04:28:56;6.80;99.90
24226;DHT22;51462;51.422;5.514;2023-11-21T04:31:21;6.70;99.90
24226;DHT22;51462;51.422;5.514;2023-11-21T04:33:47;6.80;99.90
24226;DHT22;51462;51.422;5.514;2023-11-21T04:36:12;6.70;99.90
24226;DHT22;51462;51.422;5.514;2023-11-21T04:38:38;6.80;99.90
24226;DHT22;51462;51.422;5.514;2023-11-21T04:41:04;6.80;99.90
24226;DHT22;51462;51.422;5.514;2023-11-21T04:43:29;6.80;99.90
24226;DHT22;51462;51.422;5.514;2023-11-21T04:45:55;6.60;99.90
24226;DHT22;51462;51.422;5.514;2023-11-21T04:48:21;7.00;99.90
24226;DHT22;51462;51.422;5.514;2023-11-21T04:50:46;6.80;99.90
24226;DHT22;51462;51.422;5.514;2023-11-21T04:53:12;6.70;99.90
24226;DHT22;51462;51.422;5.514;2023-11-21T04:55:40;6.70;99.90
24226;DHT22;51462;51.422;5.514;2023-11-21T04:58:07;6.80;99.90
24226;DHT22;51462;51.422;5.514;2023-11-21T05:00:33;6.80;99.90
24226;DHT22;51462;51.422;5.514;2023-11-21T05:02:59;7.00;99.90
24226;DHT22;51462;51.422;5.514;2023-11-21T05:05:26;7.10;99.90
24226;DHT22;51462;51.422;5.514;2023-11-21T05:07:52;7.10;99.90
24226;DHT22;51462;51.422;5.514;2023-11-21T05:10:19;7.10;99.90
24226;DHT22;51462;51.422;5.514;2023-11-21T05:12:44;6.90;99.90
24226;DHT22;51462;51.422;5.514;2023-11-21T05:15:13;6.80;99.90
24226;DHT22;51462;51.422;5.514;2023-11-21T05:17:39;6.70;99.90
24226;DHT22;51462;51.422;5.514;2023-11-21T05:20:13;6.80;99.90
24226;DHT22;51462;51.422;5.514;2023-11-21T05:22:40;6.80;99.90
24226;DHT22;51462;51.422;5.514;2023-11-21T05:25:06;6.80;99.90
24226;DHT22;51462;51.422;5.514;2023-11-21T05:27:33;6.80;99.90
24226;DHT22;51462;51.422;5.514;2023-11-21T05:30:03;6.90;99.90
24226;DHT22;51462;51.422;5.514;2023-11-21T05:32:34;6.70;99.90
24226;DHT22;51462;51.422;5.514;2023-11-21T05:35:00;6.80;99.90
24226;DHT22;51462;51.422;5.514;2023-11-21T05:37:26;6.80;99.90
24226;DHT22;51462;51.422;5.514;2023-11-21T05:39:53;6.80;99.90
24226;DHT22;51462;51.422;5.514;2023-11-21T05:42:18;6.70;99.90
24226;DHT22;51462;51.422;5.514;2023-11-21T05:44:44;7.00;99.90
24226;DHT22;51462;51.422;5.514;2023-11-21T05:47:10;7.00;99.90
24226;DHT22;51462;51.422;5.514;2023-11-21T05:49:36;7.10;99.90
24226;DHT22;51462;51.422;5.514;2023-11-21T05:52:02;7.10;99.90
24226;DHT22;51462;51.422;5.514;2023-11-21T05:54:28;7.10;99.90
24226;DHT22;51462;51.422;5.514;2023-11-21T05:56:53;7.10;99.90
24226;DHT22;51462;51.422;5.514;2023-11-21T05:59:19;7.00;99.90
24226;DHT22;51462;51.422;5.514;2023-11-21T06:01:45;6.90;99.90
24226;DHT22;51462;51.422;5.514;2023-11-21T06:04:11;6.90;99.90
24226;DHT22;51462;51.422;5.514;2023-11-21T06:06:38;7.00;99.90
24226;DHT22;51462;51.422;5.514;2023-11-21T06:09:04;6.90;99.90
24226;DHT22;51462;51.422;5.514;2023-11-21T06:11:31;7.00;99.90
24226;DHT22;51462;51.422;5.514;2023-11-21T06:13:57;7.00;99.90
24226;DHT22;51462;51.422;5.514;2023-11-21T06:16:23;6.90;99.90
24226;DHT22;51462;51.422;5.514;2023-11-21T06:18:49;6.90;99.90
24226;DHT22;51462;51.422;5.514;2023-11-21T06:21:15;7.10;99.90
24226;DHT22;51462;51.422;5.514;2023-11-21T06:23:42;7.10;99.90
24226;DHT22;51462;51.422;5.514;2023-11-21T06:26:08;7.00;99.90
24226;DHT22;51462;51.422;5.514;2023-11-21T06:28:34;7.00;99.90
24226;DHT22;51462;51.422;5.514;2023-11-21T06:31:01;7.00;99.90
24226;DHT22;51462;51.422;5.514;2023-11-21T06:33:33;7.00;99.90
24226;DHT22;51462;51.422;5.514;2023-11-21T06:35:59;7.00;99.90
24226;DHT22;51462;51.422;5.514;2023-11-21T06:38:25;7.10;99.90
24226;DHT22;51462;51.422;5.514;2023-11-21T06:40:53;7.10;99.90
24226;DHT22;51462;51.422;5.514;2023-11-21T06:43:20;7.20;99.90
24226;DHT22;51462;51.422;5.514;2023-11-21T06:45:47;7.20;99.90
24226;DHT22;51462;51.422;5.514;2023-11-21T06:48:12;7.20;99.90
24226;DHT22;51462;51.422;5.514;2023-11-21T06:50:38;7.10;99.90
24226;DHT22;51462;51.422;5.514;2023-11-21T06:53:04;7.10;99.90
24226;DHT22;51462;51.422;5.514;2023-11-21T06:55:32;7.30;99.90
24226;DHT22;51462;51.422;5.514;2023-11-21T06:57:58;7.20;99.90
24226;DHT22;51462;51.422;5.514;2023-11-21T07:00:25;7.20;99.90
24226;DHT22;51462;51.422;5.514;2023-11-21T07:02:51;7.30;99.90
24226;DHT22;51462;51.422;5.514;2023-11-21T07:05:16;7.20;99.90
24226;DHT22;51462;51.422;5.514;2023-11-21T07:07:46;7.20;99.90
24226;DHT22;51462;51.422;5.514;2023-11-21T07:10:11;7.20;99.90
24226;DHT22;51462;51.422;5.514;2023-11-21T07:12:37;7.20;99.90
24226;DHT22;51462;51.422;5.514;2023-11-21T07:15:03;7.30;99.90
24226;DHT22;51462;51.422;5.514;2023-11-21T07:17:30;7.30;99.90
24226;DHT22;51462;51.422;5.514;2023-11-21T07:19:56;7.20;99.90
24226;DHT22;51462;51.422;5.514;2023-11-21T07:22:22;7.30;99.90
24226;DHT22;51462;51.422;5.514;2023-11-21T07:24:50;7.30;99.90
24226;DHT22;51462;51.422;5.514;2023-11-21T07:27:16;7.40;99.90
24226;DHT22;51462;51.422;5.514;2023-11-21T07:29:42;7.40;99.90
24226;DHT22;51462;51.422;5.514;2023-11-21T07:32:07;7.30;99.90
24226;DHT22;51462;51.422;5.514;2023-11-21T07:34:35;7.40;99.90
24226;DHT22;51462;51.422;5.514;2023-11-21T07:37:01;7.50;99.90
24226;DHT22;51462;51.422;5.514;2023-11-21T07:39:27;7.50;99.90
24226;DHT22;51462;51.422;5.514;2023-11-21T07:41:52;7.50;99.90
24226;DHT22;51462;51.422;5.514;2023-11-21T07:44:18;7.50;99.90
24226;DHT22;51462;51.422;5.514;2023-11-21T07:46:45;7.50;99.90
24226;DHT22;51462;51.422;5.514;2023-11-21T07:49:10;7.50;99.90
24226;DHT22;51462;51.422;5.514;2023-11-21T07:51:36;7.60;99.90
24226;DHT22;51462;51.422;5.514;2023-11-21T07:54:02;7.60;99.90
24226;DHT22;51462;51.422;5.514;2023-11-21T07:56:27;7.60;99.90
24226;DHT22;51462;51.422;5.514;2023-11-21T07:58:53;7.60;99.90
24226;DHT22;51462;51.422;5.514;2023-11-21T08:01:19;7.60;99.90
24226;DHT22;51462;51.422;5.514;2023-11-21T08:03:44;7.70;99.90
24226;DHT22;51462;51.422;5.514;2023-11-21T08:06:10;7.60;99.90
24226;DHT22;51462;51.422;5.514;2023-11-21T08:08:35;7.70;99.90
24226;DHT22;51462;51.422;5.514;2023-11-21T08:11:01;7.70;99.90
24226;DHT22;51462;51.422;5.514;2023-11-21T08:13:28;7.70;99.90
24226;DHT22;51462;51.422;5.514;2023-11-21T08:15:54;7.70;99.90
24226;DHT22;51462;51.422;5.514;2023-11-21T08:18:20;7.80;99.90
24226;DHT22;51462;51.422;5.514;2023-11-21T08:20:46;7.70;99.90
24226;DHT22;51462;51.422;5.514;2023-11-21T08:23:16;7.70;99.90
24226;DHT22;51462;51.422;5.514;2023-11-21T08:25:45;7.90;99.90
24226;DHT22;51462;51.422;5.514;2023-11-21T08:28:11;7.90;99.90
24226;DHT22;51462;51.422;5.514;2023-11-21T08:30:37;7.90;99.90
24226;DHT22;51462;51.422;5.514;2023-11-21T08:33:02;7.90;99.90
24226;DHT22;51462;51.422;5.514;2023-11-21T08:35:29;8.00;99.90
24226;DHT22;51462;51.422;5.514;2023-11-21T08:37:55;8.30;99.90
24226;DHT22;51462;51.422;5.514;2023-11-21T08:40:21;8.20;99.90
24226;DHT22;51462;51.422;5.514;2023-11-21T08:42:47;8.10;99.90
24226;DHT22;51462;51.422;5.514;2023-11-21T08:45:16;8.10;99.90
24226;DHT22;51462;51.422;5.514;2023-11-21T08:47:43;8.10;99.90
24226;DHT22;51462;51.422;5.514;2023-11-21T08:50:09;8.10;99.90
24226;DHT22;51462;51.422;5.514;2023-11-21T08:52:37;8.10;99.90
24226;DHT22;51462;51.422;5.514;2023-11-21T08:55:04;8.10;99.90
24226;DHT22;51462;51.422;5.514;2023-11-21T08:57:36;8.20;99.90
24226;DHT22;51462;51.422;5.514;2023-11-21T09:00:03;8.30;99.90
24226;DHT22;51462;51.422;5.514;2023-11-21T09:02:33;8.30;99.90
24226;DHT22;51462;51.422;5.514;2023-11-21T09:05:00;8.30;99.90
24226;DHT22;51462;51.422;5.514;2023-11-21T09:07:28;8.30;99.90
24226;DHT22;51462;51.422;5.514;2023-11-21T09:09:54;8.30;99.90
24226;DHT22;51462;51.422;5.514;2023-11-21T09:12:20;8.30;99.90
24226;DHT22;51462;51.422;5.514;2023-11-21T09:14:46;8.30;99.90
24226;DHT22;51462;51.422;5.514;2023-11-21T09:17:11;8.40;99.90
24226;DHT22;51462;51.422;5.514;2023-11-21T09:19:40;8.40;99.90
24226;DHT22;51462;51.422;5.514;2023-11-21T09:22:06;8.40;99.90
24226;DHT22;51462;51.422;5.514;2023-11-21T09:24:33;8.40;99.90
24226;DHT22;51462;51.422;5.514;2023-11-21T09:26:58;8.40;99.90
24226;DHT22;51462;51.422;5.514;2023-11-21T09:29:26;8.60;99.90
24226;DHT22;51462;51.422;5.514;2023-11-21T09:31:51;8.60;99.90
24226;DHT22;51462;51.422;5.514;2023-11-21T09:34:17;8.50;99.90
24226;DHT22;51462;51.422;5.514;2023-11-21T09:36:46;8.60;99.90
24226;DHT22;51462;51.422;5.514;2023-11-21T09:39:12;8.60;99.90
24226;DHT22;51462;51.422;5.514;2023-11-21T09:41:53;8.60;99.90
24226;DHT22;51462;51.422;5.514;2023-11-21T09:44:32;8.60;99.90
24226;DHT22;51462;51.422;5.514;2023-11-21T09:47:00;8.60;99.90
24226;DHT22;51462;51.422;5.514;2023-11-21T09:49:28;8.60;99.90
24226;DHT22;51462;51.422;5.514;2023-11-21T09:51:58;8.70;99.90
24226;DHT22;51462;51.422;5.514;2023-11-21T09:54:24;8.70;99.90
24226;DHT22;51462;51.422;5.514;2023-11-21T09:56:50;8.70;99.90
24226;DHT22;51462;51.422;5.514;2023-11-21T09:59:16;8.70;99.90
24226;DHT22;51462;51.422;5.514;2023-11-21T10:01:42;8.70;99.90
24226;DHT22;51462;51.422;5.514;2023-11-21T10:04:09;8.70;99.90
24226;DHT22;51462;51.422;5.514;2023-11-21T10:06:40;8.80;99.90
24226;DHT22;51462;51.422;5.514;2023-11-21T10:09:12;8.80;99.90
24226;DHT22;51462;51.422;5.514;2023-11-21T10:11:40;8.80;99.90
24226;DHT22;51462;51.422;5.514;2023-11-21T10:14:08;8.80;99.90
24226;DHT22;51462;51.422;5.514;2023-11-21T10:16:36;8.90;99.90
24226;DHT22;51462;51.422;5.514;2023-11-21T10:19:04;8.90;99.90
24226;DHT22;51462;51.422;5.514;2023-11-21T10:21:32;9.00;99.90
24226;DHT22;51462;51.422;5.514;2023-11-21T10:23:58;9.00;99.90
24226;DHT22;51462;51.422;5.514;2023-11-21T10:26:26;9.10;99.90
24226;DHT22;51462;51.422;5.514;2023-11-21T10:29:02;9.10;99.90
24226;DHT22;51462;51.422;5.514;2023-11-21T10:31:31;9.10;99.90
24226;DHT22;51462;51.422;5.514;2023-11-21T10:34:16;9.20;99.90
24226;DHT22;51462;51.422;5.514;2023-11-21T10:36:43;9.30;99.90
24226;DHT22;51462;51.422;5.514;2023-11-21T10:39:09;9.30;99.90
24226;DHT22;51462;51.422;5.514;2023-11-21T10:41:35;9.30;99.90
24226;DHT22;51462;51.422;5.514;2023-11-21T10:44:02;9.40;99.90
24226;DHT22;51462;51.422;5.514;2023-11-21T10:46:32;9.40;99.90
24226;DHT22;51462;51.422;5.514;2023-11-21T10:48:59;9.40;99.90
24226;DHT22;51462;51.422;5.514;2023-11-21T10:51:25;9.40;99.90
24226;DHT22;51462;51.422;5.514;2023-11-21T10:53:54;9.40;99.90
24226;DHT22;51462;51.422;5.514;2023-11-21T10:56:23;9.40;99.90
24226;DHT22;51462;51.422;5.514;2023-11-21T10:58:49;9.50;99.90
24226;DHT22;51462;51.422;5.514;2023-11-21T11:01:17;9.60;99.90
24226;DHT22;51462;51.422;5.514;2023-11-21T11:03:44;9.60;99.90
24226;DHT22;51462;51.422;5.514;2023-11-21T11:06:10;9.60;99.90
24226;DHT22;51462;51.422;5.514;2023-11-21T11:08:40;9.70;99.90
24226;DHT22;51462;51.422;5.514;2023-11-21T11:11:06;9.70;99.90
24226;DHT22;51462;51.422;5.514;2023-11-21T11:13:32;9.70;99.90
24226;DHT22;51462;51.422;5.514;2023-11-21T11:15:59;9.80;99.90
24226;DHT22;51462;51.422;5.514;2023-11-21T11:18:32;9.80;99.90
24226;DHT22;51462;51.422;5.514;2023-11-21T11:30:00;9.90;99.90
24226;DHT22;51462;51.422;5.514;2023-11-21T11:35:32;10.00;99.90
24226;DHT22;51462;51.422;5.514;2023-11-21T11:37:58;10.00;99.90
24226;DHT22;51462;51.422;5.514;2023-11-21T11:40:38;10.00;99.90
24226;DHT22;51462;51.422;5.514;2023-11-21T11:43:06;10.00;99.90
24226;DHT22;51462;51.422;5.514;2023-11-21T11:45:33;10.10;99.90
24226;DHT22;51462;51.422;5.514;2023-11-21T11:48:02;10.10;99.90
24226;DHT22;51462;51.422;5.514;2023-11-21T11:50:29;10.10;99.90
24226;DHT22;51462;51.422;5.514;2023-11-21T11:52:55;10.10;99.90
24226;DHT22;51462;51.422;5.514;2023-11-21T11:55:36;10.10;99.90
24226;DHT22;51462;51.422;5.514;2023-11-21T11:58:06;10.10;99.90
24226;DHT22;51462;51.422;5.514;2023-11-21T12:02:59;10.20;99.90
24226;DHT22;51462;51.422;5.514;2023-11-21T12:05:28;10.20;99.90
24226;DHT22;51462;51.422;5.514;2023-11-21T12:07:56;10.30;99.90
24226;DHT22;51462;51.422;5.514;2023-11-21T12:10:30;10.20;99.90
24226;DHT22;51462;51.422;5.514;2023-11-21T12:12:58;10.20;99.90
24226;DHT22;51462;51.422;5.514;2023-11-21T12:15:25;10.20;99.90
24226;DHT22;51462;51.422;5.514;2023-11-21T12:17:52;10.30;99.90
24226;DHT22;51462;51.422;5.514;2023-11-21T12:20:19;10.30;99.90
24226;DHT22;51462;51.422;5.514;2023-11-21T12:22:56;10.30;99.90
24226;DHT22;51462;51.422;5.514;2023-11-21T12:25:26;10.30;99.90
24226;DHT22;51462;51.422;5.514;2023-11-21T12:27:55;10.40;99.90
24226;DHT22;51462;51.422;5.514;2023-11-21T12:30:23;10.40;99.90
24226;DHT22;51462;51.422;5.514;2023-11-21T12:32:50;10.40;99.90
24226;DHT22;51462;51.422;5.514;2023-11-21T12:35:29;10.40;99.90
24226;DHT22;51462;51.422;5.514;2023-11-21T12:37:56;10.40;99.90
24226;DHT22;51462;51.422;5.514;2023-11-21T12:40:25;10.40;99.90
24226;DHT22;51462;51.422;5.514;2023-11-21T12:42:58;10.40;99.90
24226;DHT22;51462;51.422;5.514;2023-11-21T12:45:26;10.40;99.90
24226;DHT22;51462;51.422;5.514;2023-11-21T12:48:04;10.50;99.90
24226;DHT22;51462;51.422;5.514;2023-11-21T12:50:34;10.50;99.90
24226;DHT22;51462;51.422;5.514;2023-11-21T12:55:32;10.50;99.90
24226;DHT22;51462;51.422;5.514;2023-11-21T12:58:04;10.50;99.90
24226;DHT22;51462;51.422;5.514;2023-11-21T13:00:37;10.50;99.90
24226;DHT22;51462;51.422;5.514;2023-11-21T13:03:04;10.60;99.90
24226;DHT22;51462;51.422;5.514;2023-11-21T13:05:35;10.60;99.90
24226;DHT22;51462;51.422;5.514;2023-11-21T13:08:04;10.70;99.90
24226;DHT22;51462;51.422;5.514;2023-11-21T13:10:34;10.70;99.90
24226;DHT22;51462;51.422;5.514;2023-11-21T13:13:03;10.70;99.90
24226;DHT22;51462;51.422;5.514;2023-11-21T13:15:31;10.70;99.90
24226;DHT22;51462;51.422;5.514;2023-11-21T13:17:58;10.70;99.90
24226;DHT22;51462;51.422;5.514;2023-11-21T13:20:25;10.70;99.90
24226;DHT22;51462;51.422;5.514;2023-11-21T13:22:57;10.80;99.90
24226;DHT22;51462;51.422;5.514;2023-11-21T13:25:25;10.80;99.90
24226;DHT22;51462;51.422;5.514;2023-11-21T13:27:56;10.80;99.90
24226;DHT22;51462;51.422;5.514;2023-11-21T13:30:23;10.80;99.90
24226;DHT22;51462;51.422;5.514;2023-11-21T13:32:53;10.70;99.90
24226;DHT22;51462;51.422;5.514;2023-11-21T13:35:23;10.70;99.90
24226;DHT22;51462;51.422;5.514;2023-11-21T13:37:57;10.70;99.90
24226;DHT22;51462;51.422;5.514;2023-11-21T13:40:25;10.70;99.90
24226;DHT22;51462;51.422;5.514;2023-11-21T13:42:55;10.70;99.90
24226;DHT22;51462;51.422;5.514;2023-11-21T13:45:25;10.70;99.90
24226;DHT22;51462;51.422;5.514;2023-11-21T13:47:52;10.70;99.90
24226;DHT22;51462;51.422;5.514;2023-11-21T13:50:20;10.80;99.90
24226;DHT22;51462;51.422;5.514;2023-11-21T13:52:53;10.80;99.90
24226;DHT22;51462;51.422;5.514;2023-11-21T13:55:20;10.70;99.90
24226;DHT22;51462;51.422;5.514;2023-11-21T13:57:47;10.70;99.90
24226;DHT22;51462;51.422;5.514;2023-11-21T14:00:17;10.70;99.90
24226;DHT22;51462;51.422;5.514;2023-11-21T14:03:25;10.80;99.90
24226;DHT22;51462;51.422;5.514;2023-11-21T14:06:03;10.80;99.90
24226;DHT22;51462;51.422;5.514;2023-11-21T14:08:34;10.90;99.90
24226;DHT22;51462;51.422;5.514;2023-11-21T14:11:00;10.90;99.90
24226;DHT22;51462;51.422;5.514;2023-11-21T14:13:28;10.90;99.90
24226;DHT22;51462;51.422;5.514;2023-11-21T14:15:54;10.80;99.90
24226;DHT22;51462;51.422;5.514;2023-11-21T14:18:24;10.90;99.90
24226;DHT22;51462;51.422;5.514;2023-11-21T14:20:59;11.00;99.90
24226;DHT22;51462;51.422;5.514;2023-11-21T14:23:25;11.00;99.90
24226;DHT22;51462;51.422;5.514;2023-11-21T14:25:50;10.90;99.90
24226;DHT22;51462;51.422;5.514;2023-11-21T14:28:17;10.90;99.90
24226;DHT22;51462;51.422;5.514;2023-11-21T14:30:45;10.80;99.90
24226;DHT22;51462;51.422;5.514;2023-11-21T14:33:12;10.80;99.90
24226;DHT22;51462;51.422;5.514;2023-11-21T14:35:37;11.00;99.90
24226;DHT22;51462;51.422;5.514;2023-11-21T14:38:03;11.00;99.90
24226;DHT22;51462;51.422;5.514;2023-11-21T14:40:31;11.10;99.90
24226;DHT22;51462;51.422;5.514;2023-11-21T14:43:07;11.10;99.90
24226;DHT22;51462;51.422;5.514;2023-11-21T14:45:33;11.10;99.90
24226;DHT22;51462;51.422;5.514;2023-11-21T14:48:00;11.10;99.90
24226;DHT22;51462;51.422;5.514;2023-11-21T14:50:41;11.00;99.90
24226;DHT22;51462;51.422;5.514;2023-11-21T14:53:08;11.00;99.90
24226;DHT22;51462;51.422;5.514;2023-11-21T14:55:35;11.00;99.90
24226;DHT22;51462;51.422;5.514;2023-11-21T14:58:19;11.00;99.90
24226;DHT22;51462;51.422;5.514;2023-11-21T15:00:56;11.10;99.90
24226;DHT22;51462;51.422;5.514;2023-11-21T15:03:27;11.00;99.90
24226;DHT22;51462;51.422;5.514;2023-11-21T15:06:03;10.90;99.90
24226;DHT22;51462;51.422;5.514;2023-11-21T15:08:48;10.90;99.90
24226;DHT22;51462;51.422;5.514;2023-11-21T15:11:18;10.80;99.90
24226;DHT22;51462;51.422;5.514;2023-11-21T15:13:44;10.80;99.90
24226;DHT22;51462;51.422;5.514;2023-11-21T15:16:10;10.80;99.90
24226;DHT22;51462;51.422;5.514;2023-11-21T15:18:37;10.90;99.90
24226;DHT22;51462;51.422;5.514;2023-11-21T15:21:04;10.90;99.90
24226;DHT22;51462;51.422;5.514;2023-11-21T15:23:29;10.90;99.90
24226;DHT22;51462;51.422;5.514;2023-11-21T15:25:57;10.90;99.90
24226;DHT22;51462;51.422;5.514;2023-11-21T15:28:23;10.90;99.90
24226;DHT22;51462;51.422;5.514;2023-11-21T15:30:50;10.90;99.90
24226;DHT22;51462;51.422;5.514;2023-11-21T15:33:16;10.90;99.90
24226;DHT22;51462;51.422;5.514;2023-11-21T15:35:43;11.00;99.90
24226;DHT22;51462;51.422;5.514;2023-11-21T15:38:08;11.10;99.90
24226;DHT22;51462;51.422;5.514;2023-11-21T15:40:34;11.20;99.90
24226;DHT22;51462;51.422;5.514;2023-11-21T15:43:00;11.10;99.90
24226;DHT22;51462;51.422;5.514;2023-11-21T15:45:28;11.00;99.90
24226;DHT22;51462;51.422;5.514;2023-11-21T15:47:54;11.10;99.90
24226;DHT22;51462;51.422;5.514;2023-11-21T15:50:21;11.10;99.90
24226;DHT22;51462;51.422;5.514;2023-11-21T15:52:46;11.10;99.90
24226;DHT22;51462;51.422;5.514;2023-11-21T15:55:12;11.10;99.90
24226;DHT22;51462;51.422;5.514;2023-11-21T15:57:38;11.10;99.90
24226;DHT22;51462;51.422;5.514;2023-11-21T16:00:05;11.00;99.90